sensor_id;sensor_type;location;lat;lon;timestamp;temperature;humidity
38325;DHT22;24126;52.672;13.622;2023-06-10T00:00:40;22.20;56.30
38325;DHT22;24126;52.672;13.622;2023-06-10T00:03:07;22.20;56.30
38325;DHT22;24126;52.672;13.622;2023-06-10T00:05:35;22.10;56.20
38325;DHT22;24126;52.672;13.622;2023-06-10T00:08:05;22.10;56.60
38325;DHT22;24126;52.672;13.622;2023-06-10T00:10:34;22.00;56.80
38325;DHT22;24126;52.672;13.622;2023-06-10T00:13:02;21.90;56.90
38325;DHT22;24126;52.672;13.622;2023-06-10T00:15:30;21.90;57.00
38325;DHT22;24126;52.672;13.622;2023-06-10T00:17:57;21.80;57.00
38325;DHT22;24126;52.672;13.622;2023-06-10T00:20:24;21.80;57.20
38325;DHT22;24126;52.672;13.622;2023-06-10T00:22:51;21.80;57.30
38325;DHT22;24126;52.672;13.622;2023-06-10T00:25:19;21.80;57.40
38325;DHT22;24126;52.672;13.622;2023-06-10T00:27:46;21.80;57.40
38325;DHT22;24126;52.672;13.622;2023-06-10T00:30:13;21.70;57.40
38325;DHT22;24126;52.672;13.622;2023-06-10T00:32:40;21.70;57.60
38325;DHT22;24126;52.672;13.622;2023-06-10T00:35:07;21.70;57.70
38325;DHT22;24126;52.672;13.622;2023-06-10T00:37:35;21.70;57.80
38325;DHT22;24126;52.672;13.622;2023-06-10T00:40:02;21.60;57.90
38325;DHT22;24126;52.672;13.622;2023-06-10T00:42:31;21.60;58.00
38325;DHT22;24126;52.672;13.622;2023-06-10T00:44:58;21.50;58.00
38325;DHT22;24126;52.672;13.622;2023-06-10T00:47:25;21.50;58.10
38325;DHT22;24126;52.672;13.622;2023-06-10T00:49:52;21.50;58.20
38325;DHT22;24126;52.672;13.622;2023-06-10T00:52:20;21.50;58.30
38325;DHT22;24126;52.672;13.622;2023-06-10T00:54:47;21.40;58.30
38325;DHT22;24126;52.672;13.622;2023-06-10T00:57:15;21.40;58.50
38325;DHT22;24126;52.672;13.622;2023-06-10T00:59:43;21.40;58.60
38325;DHT22;24126;52.672;13.622;2023-06-10T01:02:13;21.30;58.70
38325;DHT22;24126;52.672;13.622;2023-06-10T01:04:40;21.30;58.70
38325;DHT22;24126;52.672;13.622;2023-06-10T01:07:27;21.30;58.90
38325;DHT22;24126;52.672;13.622;2023-06-10T01:12:43;21.20;59.00
38325;DHT22;24126;52.672;13.622;2023-06-10T01:15:17;21.20;59.10
38325;DHT22;24126;52.672;13.622;2023-06-10T01:17:55;21.20;59.20
38325;DHT22;24126;52.672;13.622;2023-06-10T01:20:23;21.20;59.30
38325;DHT22;24126;52.672;13.622;2023-06-10T01:22:55;21.20;59.40
38325;DHT22;24126;52.672;13.622;2023-06-10T01:25:24;21.10;59.30
38325;DHT22;24126;52.672;13.622;2023-06-10T01:27:55;21.10;59.40
38325;DHT22;24126;52.672;13.622;2023-06-10T01:30:27;21.10;59.50
38325;DHT22;24126;52.672;13.622;2023-06-10T01:32:56;21.00;59.60
38325;DHT22;24126;52.672;13.622;2023-06-10T01:35:25;21.00;59.80
38325;DHT22;24126;52.672;13.622;2023-06-10T01:37:53;20.90;59.90
38325;DHT22;24126;52.672;13.622;2023-06-10T01:40:20;20.90;60.00
38325;DHT22;24126;52.672;13.622;2023-06-10T01:42:48;20.90;60.00
38325;DHT22;24126;52.672;13.622;2023-06-10T01:45:15;20.90;60.10
38325;DHT22;24126;52.672;13.622;2023-06-10T01:47:42;20.80;60.00
38325;DHT22;24126;52.672;13.622;2023-06-10T01:50:09;20.80;60.30
38325;DHT22;24126;52.672;13.622;2023-06-10T01:52:37;20.80;60.30
38325;DHT22;24126;52.672;13.622;2023-06-10T01:55:04;20.80;60.20
38325;DHT22;24126;52.672;13.622;2023-06-10T01:57:32;20.80;60.40
38325;DHT22;24126;52.672;13.622;2023-06-10T01:59:59;20.70;60.50
38325;DHT22;24126;52.672;13.622;2023-06-10T02:02:26;20.70;60.70
38325;DHT22;24126;52.672;13.622;2023-06-10T02:04:53;20.70;60.80
38325;DHT22;24126;52.672;13.622;2023-06-10T02:07:21;20.60;60.90
38325;DHT22;24126;52.672;13.622;2023-06-10T02:09:48;20.60;60.90
38325;DHT22;24126;52.672;13.622;2023-06-10T02:12:21;20.60;61.10
38325;DHT22;24126;52.672;13.622;2023-06-10T02:14:48;20.60;61.20
38325;DHT22;24126;52.672;13.622;2023-06-10T02:17:17;20.50;61.20
38325;DHT22;24126;52.672;13.622;2023-06-10T02:19:45;20.50;61.30
38325;DHT22;24126;52.672;13.622;2023-06-10T02:22:21;20.50;61.50
38325;DHT22;24126;52.672;13.622;2023-06-10T02:24:49;20.50;61.50
38325;DHT22;24126;52.672;13.622;2023-06-10T02:27:16;20.50;61.50
38325;DHT22;24126;52.672;13.622;2023-06-10T02:29:43;20.50;61.60
38325;DHT22;24126;52.672;13.622;2023-06-10T02:32:11;20.40;61.60
38325;DHT22;24126;52.672;13.622;2023-06-10T02:34:40;20.40;61.70
38325;DHT22;24126;52.672;13.622;2023-06-10T02:37:09;20.40;61.80
38325;DHT22;24126;52.672;13.622;2023-06-10T02:39:36;20.40;61.90
38325;DHT22;24126;52.672;13.622;2023-06-10T02:42:07;20.40;61.90
38325;DHT22;24126;52.672;13.622;2023-06-10T02:44:35;20.30;61.90
38325;DHT22;24126;52.672;13.622;2023-06-10T02:47:03;20.30;61.90
38325;DHT22;24126;52.672;13.622;2023-06-10T02:49:32;20.30;62.00
38325;DHT22;24126;52.672;13.622;2023-06-10T02:52:00;20.30;62.00
38325;DHT22;24126;52.672;13.622;2023-06-10T02:54:27;20.30;62.00
38325;DHT22;24126;52.672;13.622;2023-06-10T02:56:56;20.30;62.10
38325;DHT22;24126;52.672;13.622;2023-06-10T02:59:26;20.30;62.10
38325;DHT22;24126;52.672;13.622;2023-06-10T03:01:54;20.30;62.30
38325;DHT22;24126;52.672;13.622;2023-06-10T03:04:23;20.20;62.30
38325;DHT22;24126;52.672;13.622;2023-06-10T03:06:59;20.20;62.40
38325;DHT22;24126;52.672;13.622;2023-06-10T03:09:32;20.20;62.50
38325;DHT22;24126;52.672;13.622;2023-06-10T03:12:01;20.20;62.40
38325;DHT22;24126;52.672;13.622;2023-06-10T03:14:33;20.20;62.50
38325;DHT22;24126;52.672;13.622;2023-06-10T03:17:00;20.20;62.50
38325;DHT22;24126;52.672;13.622;2023-06-10T03:19:29;20.20;62.60
38325;DHT22;24126;52.672;13.622;2023-06-10T03:22:09;20.20;62.70
38325;DHT22;24126;52.672;13.622;2023-06-10T03:24:54;20.20;62.70
38325;DHT22;24126;52.672;13.622;2023-06-10T03:27:24;20.20;62.80
38325;DHT22;24126;52.672;13.622;2023-06-10T03:29:54;20.20;62.80
38325;DHT22;24126;52.672;13.622;2023-06-10T03:32:22;20.10;62.70
38325;DHT22;24126;52.672;13.622;2023-06-10T03:34:49;20.20;63.00
38325;DHT22;24126;52.672;13.622;2023-06-10T03:37:18;20.20;63.00
38325;DHT22;24126;52.672;13.622;2023-06-10T03:39:47;20.20;63.00
38325;DHT22;24126;52.672;13.622;2023-06-10T03:42:14;20.20;63.00
38325;DHT22;24126;52.672;13.622;2023-06-10T03:44:41;20.20;63.10
38325;DHT22;24126;52.672;13.622;2023-06-10T03:47:08;20.20;63.90
38325;DHT22;24126;52.672;13.622;2023-06-10T03:49:37;20.20;63.10
38325;DHT22;24126;52.672;13.622;2023-06-10T03:52:06;20.20;63.00
38325;DHT22;24126;52.672;13.622;2023-06-10T03:54:34;20.20;63.00
38325;DHT22;24126;52.672;13.622;2023-06-10T03:57:02;20.30;62.80
38325;DHT22;24126;52.672;13.622;2023-06-10T03:59:30;20.30;62.80
38325;DHT22;24126;52.672;13.622;2023-06-10T04:01:57;20.40;62.80
38325;DHT22;24126;52.672;13.622;2023-06-10T04:04:24;20.40;62.70
38325;DHT22;24126;52.672;13.622;2023-06-10T04:06:51;20.40;62.90
38325;DHT22;24126;52.672;13.622;2023-06-10T04:09:18;20.40;63.00
38325;DHT22;24126;52.672;13.622;2023-06-10T04:11:45;20.40;62.80
38325;DHT22;24126;52.672;13.622;2023-06-10T04:14:13;20.50;62.90
38325;DHT22;24126;52.672;13.622;2023-06-10T04:16:42;20.50;62.90
38325;DHT22;24126;52.672;13.622;2023-06-10T04:19:10;20.60;62.90
38325;DHT22;24126;52.672;13.622;2023-06-10T04:21:38;20.60;62.90
38325;DHT22;24126;52.672;13.622;2023-06-10T04:24:05;20.60;62.70
38325;DHT22;24126;52.672;13.622;2023-06-10T04:26:34;20.60;62.40
38325;DHT22;24126;52.672;13.622;2023-06-10T04:29:01;20.70;62.50
38325;DHT22;24126;52.672;13.622;2023-06-10T04:31:29;20.70;62.20
38325;DHT22;24126;52.672;13.622;2023-06-10T04:33:56;20.80;62.20
38325;DHT22;24126;52.672;13.622;2023-06-10T04:36:23;20.80;62.20
38325;DHT22;24126;52.672;13.622;2023-06-10T04:38:51;20.90;62.20
38325;DHT22;24126;52.672;13.622;2023-06-10T04:41:18;20.90;62.10
38325;DHT22;24126;52.672;13.622;2023-06-10T04:43:46;20.90;62.00
38325;DHT22;24126;52.672;13.622;2023-06-10T04:46:13;20.90;62.20
38325;DHT22;24126;52.672;13.622;2023-06-10T04:48:40;20.90;62.30
38325;DHT22;24126;52.672;13.622;2023-06-10T04:51:08;20.90;62.30
38325;DHT22;24126;52.672;13.622;2023-06-10T04:53:35;20.90;62.10
38325;DHT22;24126;52.672;13.622;2023-06-10T04:56:02;21.00;62.10
38325;DHT22;24126;52.672;13.622;2023-06-10T04:58:29;21.00;62.20
38325;DHT22;24126;52.672;13.622;2023-06-10T05:00:57;21.00;62.10
38325;DHT22;24126;52.672;13.622;2023-06-10T05:03:24;21.00;62.10
38325;DHT22;24126;52.672;13.622;2023-06-10T05:05:51;21.00;62.80
38325;DHT22;24126;52.672;13.622;2023-06-10T05:08:18;21.10;61.90
38325;DHT22;24126;52.672;13.622;2023-06-10T05:10:45;21.10;61.90
38325;DHT22;24126;52.672;13.622;2023-06-10T05:13:12;21.20;62.00
38325;DHT22;24126;52.672;13.622;2023-06-10T05:15:39;21.20;61.80
38325;DHT22;24126;52.672;13.622;2023-06-10T05:18:10;21.20;61.80
38325;DHT22;24126;52.672;13.622;2023-06-10T05:20:38;21.30;61.90
38325;DHT22;24126;52.672;13.622;2023-06-10T05:23:05;21.30;61.90
38325;DHT22;24126;52.672;13.622;2023-06-10T05:25:32;21.30;61.90
38325;DHT22;24126;52.672;13.622;2023-06-10T05:27:59;21.40;61.90
38325;DHT22;24126;52.672;13.622;2023-06-10T05:30:26;21.40;61.80
38325;DHT22;24126;52.672;13.622;2023-06-10T05:32:53;21.40;61.80
38325;DHT22;24126;52.672;13.622;2023-06-10T05:35:21;21.50;61.60
38325;DHT22;24126;52.672;13.622;2023-06-10T05:37:49;21.50;61.80
38325;DHT22;24126;52.672;13.622;2023-06-10T05:40:16;21.60;61.60
38325;DHT22;24126;52.672;13.622;2023-06-10T05:42:43;21.60;61.60
38325;DHT22;24126;52.672;13.622;2023-06-10T05:45:10;21.80;61.30
38325;DHT22;24126;52.672;13.622;2023-06-10T05:47:37;22.00;62.10
38325;DHT22;24126;52.672;13.622;2023-06-10T05:50:04;22.20;61.00
38325;DHT22;24126;52.672;13.622;2023-06-10T05:52:33;22.40;60.00
38325;DHT22;24126;52.672;13.622;2023-06-10T05:55:00;22.70;59.50
38325;DHT22;24126;52.672;13.622;2023-06-10T05:57:27;22.90;59.00
38325;DHT22;24126;52.672;13.622;2023-06-10T05:59:54;22.90;58.90
38325;DHT22;24126;52.672;13.622;2023-06-10T06:02:21;23.00;58.90
38325;DHT22;24126;52.672;13.622;2023-06-10T06:04:48;23.00;58.70
38325;DHT22;24126;52.672;13.622;2023-06-10T06:07:15;23.00;58.70
38325;DHT22;24126;52.672;13.622;2023-06-10T06:09:42;23.00;58.40
38325;DHT22;24126;52.672;13.622;2023-06-10T06:12:09;23.00;58.50
38325;DHT22;24126;52.672;13.622;2023-06-10T06:14:37;23.00;58.20
38325;DHT22;24126;52.672;13.622;2023-06-10T06:17:05;23.00;58.40
38325;DHT22;24126;52.672;13.622;2023-06-10T06:19:35;22.90;58.60
38325;DHT22;24126;52.672;13.622;2023-06-10T06:22:02;23.00;58.90
38325;DHT22;24126;52.672;13.622;2023-06-10T06:24:29;23.10;59.10
38325;DHT22;24126;52.672;13.622;2023-06-10T06:26:56;23.40;58.90
38325;DHT22;24126;52.672;13.622;2023-06-10T06:29:23;23.60;58.50
38325;DHT22;24126;52.672;13.622;2023-06-10T06:31:50;23.70;57.30
38325;DHT22;24126;52.672;13.622;2023-06-10T06:34:17;23.70;57.00
38325;DHT22;24126;52.672;13.622;2023-06-10T06:36:45;23.60;56.90
38325;DHT22;24126;52.672;13.622;2023-06-10T06:39:12;23.50;57.20
38325;DHT22;24126;52.672;13.622;2023-06-10T06:41:39;23.40;57.60
38325;DHT22;24126;52.672;13.622;2023-06-10T06:44:07;23.40;57.70
38325;DHT22;24126;52.672;13.622;2023-06-10T06:46:38;23.50;57.40
38325;DHT22;24126;52.672;13.622;2023-06-10T06:49:05;23.60;57.10
38325;DHT22;24126;52.672;13.622;2023-06-10T06:51:32;23.60;56.90
38325;DHT22;24126;52.672;13.622;2023-06-10T06:53:59;23.70;56.80
38325;DHT22;24126;52.672;13.622;2023-06-10T06:56:30;23.80;56.80
38325;DHT22;24126;52.672;13.622;2023-06-10T06:58:57;23.80;56.70
38325;DHT22;24126;52.672;13.622;2023-06-10T07:01:24;23.90;56.50
38325;DHT22;24126;52.672;13.622;2023-06-10T07:03:54;24.00;56.10
38325;DHT22;24126;52.672;13.622;2023-06-10T07:06:25;24.00;56.30
38325;DHT22;24126;52.672;13.622;2023-06-10T07:08:53;24.10;56.00
38325;DHT22;24126;52.672;13.622;2023-06-10T07:11:33;24.10;56.10
38325;DHT22;24126;52.672;13.622;2023-06-10T07:14:01;24.30;56.10
38325;DHT22;24126;52.672;13.622;2023-06-10T07:16:31;24.50;56.10
38325;DHT22;24126;52.672;13.622;2023-06-10T07:19:01;24.80;55.50
38325;DHT22;24126;52.672;13.622;2023-06-10T07:21:35;25.10;54.60
38325;DHT22;24126;52.672;13.622;2023-06-10T07:24:09;25.30;54.10
38325;DHT22;24126;52.672;13.622;2023-06-10T07:26:37;25.50;53.80
38325;DHT22;24126;52.672;13.622;2023-06-10T07:29:05;25.60;53.50
38325;DHT22;24126;52.672;13.622;2023-06-10T07:31:32;25.70;53.40
38325;DHT22;24126;52.672;13.622;2023-06-10T07:34:00;25.80;53.30
38325;DHT22;24126;52.672;13.622;2023-06-10T07:36:34;25.90;53.10
38325;DHT22;24126;52.672;13.622;2023-06-10T07:39:02;25.90;52.80
38325;DHT22;24126;52.672;13.622;2023-06-10T07:41:30;25.90;52.30
38325;DHT22;24126;52.672;13.622;2023-06-10T07:44:01;25.80;52.40
38325;DHT22;24126;52.672;13.622;2023-06-10T07:46:29;25.70;52.50
38325;DHT22;24126;52.672;13.622;2023-06-10T07:48:57;25.70;52.90
38325;DHT22;24126;52.672;13.622;2023-06-10T07:51:27;25.60;52.80
38325;DHT22;24126;52.672;13.622;2023-06-10T07:53:55;25.60;52.70
38325;DHT22;24126;52.672;13.622;2023-06-10T07:56:23;25.50;53.00
38325;DHT22;24126;52.672;13.622;2023-06-10T07:58:52;25.50;53.00
38325;DHT22;24126;52.672;13.622;2023-06-10T08:01:20;25.40;52.90
38325;DHT22;24126;52.672;13.622;2023-06-10T08:03:48;25.40;53.10
38325;DHT22;24126;52.672;13.622;2023-06-10T08:06:15;25.30;54.00
38325;DHT22;24126;52.672;13.622;2023-06-10T08:08:43;25.30;53.40
38325;DHT22;24126;52.672;13.622;2023-06-10T08:11:12;25.20;53.40
38325;DHT22;24126;52.672;13.622;2023-06-10T08:13:39;25.30;53.60
38325;DHT22;24126;52.672;13.622;2023-06-10T08:16:06;25.20;53.40
38325;DHT22;24126;52.672;13.622;2023-06-10T08:18:33;25.20;53.40
38325;DHT22;24126;52.672;13.622;2023-06-10T08:21:00;25.20;53.50
38325;DHT22;24126;52.672;13.622;2023-06-10T08:23:27;25.20;53.60
38325;DHT22;24126;52.672;13.622;2023-06-10T08:25:54;25.20;53.50
38325;DHT22;24126;52.672;13.622;2023-06-10T08:28:21;25.10;53.50
38325;DHT22;24126;52.672;13.622;2023-06-10T08:30:48;25.10;53.60
38325;DHT22;24126;52.672;13.622;2023-06-10T08:33:15;25.00;53.80
38325;DHT22;24126;52.672;13.622;2023-06-10T08:35:43;25.00;54.00
38325;DHT22;24126;52.672;13.622;2023-06-10T08:38:10;24.90;54.30
38325;DHT22;24126;52.672;13.622;2023-06-10T08:40:37;24.80;54.60
38325;DHT22;24126;52.672;13.622;2023-06-10T08:43:08;24.80;54.90
38325;DHT22;24126;52.672;13.622;2023-06-10T08:45:35;24.70;55.00
38325;DHT22;24126;52.672;13.622;2023-06-10T08:48:03;24.70;55.50
38325;DHT22;24126;52.672;13.622;2023-06-10T08:50:34;24.60;55.70
38325;DHT22;24126;52.672;13.622;2023-06-10T08:53:01;24.60;55.70
38325;DHT22;24126;52.672;13.622;2023-06-10T08:55:30;24.60;56.70
38325;DHT22;24126;52.672;13.622;2023-06-10T08:58:00;24.60;56.10
38325;DHT22;24126;52.672;13.622;2023-06-10T09:00:29;24.60;56.10
38325;DHT22;24126;52.672;13.622;2023-06-10T09:02:56;24.60;56.10
38325;DHT22;24126;52.672;13.622;2023-06-10T09:05:24;24.60;55.90
38325;DHT22;24126;52.672;13.622;2023-06-10T09:07:52;24.70;55.90
38325;DHT22;24126;52.672;13.622;2023-06-10T09:10:19;24.70;55.90
38325;DHT22;24126;52.672;13.622;2023-06-10T09:12:46;24.70;55.60
38325;DHT22;24126;52.672;13.622;2023-06-10T09:15:13;24.70;55.70
38325;DHT22;24126;52.672;13.622;2023-06-10T09:17:43;24.70;55.90
38325;DHT22;24126;52.672;13.622;2023-06-10T09:20:10;24.70;56.00
38325;DHT22;24126;52.672;13.622;2023-06-10T09:22:37;24.70;56.20
38325;DHT22;24126;52.672;13.622;2023-06-10T09:25:08;24.80;56.00
38325;DHT22;24126;52.672;13.622;2023-06-10T09:27:46;24.80;56.10
38325;DHT22;24126;52.672;13.622;2023-06-10T09:30:27;24.90;56.50
38325;DHT22;24126;52.672;13.622;2023-06-10T09:32:56;24.90;56.60
38325;DHT22;24126;52.672;13.622;2023-06-10T09:35:23;24.90;56.50
38325;DHT22;24126;52.672;13.622;2023-06-10T09:37:55;24.90;56.40
38325;DHT22;24126;52.672;13.622;2023-06-10T09:40:22;24.90;56.20
38325;DHT22;24126;52.672;13.622;2023-06-10T09:42:52;24.90;55.90
38325;DHT22;24126;52.672;13.622;2023-06-10T09:45:21;24.80;55.90
38325;DHT22;24126;52.672;13.622;2023-06-10T09:47:52;24.70;56.10
38325;DHT22;24126;52.672;13.622;2023-06-10T09:50:19;24.60;56.70
38325;DHT22;24126;52.672;13.622;2023-06-10T09:52:47;24.50;57.40
38325;DHT22;24126;52.672;13.622;2023-06-10T09:55:14;24.50;58.00
38325;DHT22;24126;52.672;13.622;2023-06-10T09:57:42;24.30;58.70
38325;DHT22;24126;52.672;13.622;2023-06-10T10:00:13;24.10;58.80
38325;DHT22;24126;52.672;13.622;2023-06-10T10:02:51;24.00;58.70
38325;DHT22;24126;52.672;13.622;2023-06-10T10:05:20;23.90;59.40
38325;DHT22;24126;52.672;13.622;2023-06-10T10:07:47;23.90;60.40
38325;DHT22;24126;52.672;13.622;2023-06-10T10:10:15;23.80;60.60
38325;DHT22;24126;52.672;13.622;2023-06-10T10:12:42;23.80;61.30
38325;DHT22;24126;52.672;13.622;2023-06-10T10:15:10;23.80;62.20
38325;DHT22;24126;52.672;13.622;2023-06-10T10:20:26;23.70;62.80
38325;DHT22;24126;52.672;13.622;2023-06-10T10:22:56;23.70;62.80
38325;DHT22;24126;52.672;13.622;2023-06-10T10:25:25;23.60;63.50
38325;DHT22;24126;52.672;13.622;2023-06-10T10:30:30;23.60;63.40
38325;DHT22;24126;52.672;13.622;2023-06-10T10:36:11;23.50;64.30
38325;DHT22;24126;52.672;13.622;2023-06-10T10:38:39;23.50;64.40
38325;DHT22;24126;52.672;13.622;2023-06-10T10:41:07;23.40;65.10
38325;DHT22;24126;52.672;13.622;2023-06-10T10:43:35;23.40;65.30
38325;DHT22;24126;52.672;13.622;2023-06-10T10:46:08;23.40;65.50
38325;DHT22;24126;52.672;13.622;2023-06-10T10:48:38;23.40;65.90
38325;DHT22;24126;52.672;13.622;2023-06-10T10:51:07;23.50;66.30
38325;DHT22;24126;52.672;13.622;2023-06-10T10:53:34;23.60;66.10
38325;DHT22;24126;52.672;13.622;2023-06-10T10:56:13;23.70;66.30
38325;DHT22;24126;52.672;13.622;2023-06-10T10:58:41;23.80;66.20
38325;DHT22;24126;52.672;13.622;2023-06-10T11:01:12;23.90;66.30
38325;DHT22;24126;52.672;13.622;2023-06-10T11:03:43;24.20;66.80
38325;DHT22;24126;52.672;13.622;2023-06-10T11:06:17;24.40;66.10
38325;DHT22;24126;52.672;13.622;2023-06-10T11:08:45;24.70;65.80
38325;DHT22;24126;52.672;13.622;2023-06-10T11:11:26;24.90;65.10
38325;DHT22;24126;52.672;13.622;2023-06-10T11:14:12;25.10;65.10
38325;DHT22;24126;52.672;13.622;2023-06-10T11:16:40;25.20;64.80
38325;DHT22;24126;52.672;13.622;2023-06-10T11:19:08;25.50;65.30
38325;DHT22;24126;52.672;13.622;2023-06-10T11:21:57;25.80;64.50
38325;DHT22;24126;52.672;13.622;2023-06-10T11:24:24;26.10;64.30
38325;DHT22;24126;52.672;13.622;2023-06-10T11:26:52;26.50;62.70
38325;DHT22;24126;52.672;13.622;2023-06-10T11:29:19;26.70;62.70
38325;DHT22;24126;52.672;13.622;2023-06-10T11:31:50;27.00;62.20
38325;DHT22;24126;52.672;13.622;2023-06-10T11:34:21;27.30;61.50
38325;DHT22;24126;52.672;13.622;2023-06-10T11:36:50;27.50;61.30
38325;DHT22;24126;52.672;13.622;2023-06-10T11:39:19;27.80;60.70
38325;DHT22;24126;52.672;13.622;2023-06-10T11:41:46;28.00;60.50
38325;DHT22;24126;52.672;13.622;2023-06-10T11:44:14;28.20;59.50
38325;DHT22;24126;52.672;13.622;2023-06-10T11:46:41;28.40;58.70
38325;DHT22;24126;52.672;13.622;2023-06-10T11:49:09;28.50;57.60
38325;DHT22;24126;52.672;13.622;2023-06-10T11:51:40;28.70;56.80
38325;DHT22;24126;52.672;13.622;2023-06-10T11:54:14;28.90;56.60
38325;DHT22;24126;52.672;13.622;2023-06-10T11:56:41;29.10;56.00
38325;DHT22;24126;52.672;13.622;2023-06-10T11:59:09;29.30;55.00
38325;DHT22;24126;52.672;13.622;2023-06-10T12:01:36;29.40;54.90
38325;DHT22;24126;52.672;13.622;2023-06-10T12:04:06;29.50;55.20
38325;DHT22;24126;52.672;13.622;2023-06-10T12:06:37;29.50;54.20
38325;DHT22;24126;52.672;13.622;2023-06-10T12:09:06;29.60;54.50
38325;DHT22;24126;52.672;13.622;2023-06-10T12:11:33;29.70;54.50
38325;DHT22;24126;52.672;13.622;2023-06-10T12:14:02;29.90;53.80
38325;DHT22;24126;52.672;13.622;2023-06-10T12:16:29;30.10;53.60
38325;DHT22;24126;52.672;13.622;2023-06-10T12:19:03;30.20;51.90
38325;DHT22;24126;52.672;13.622;2023-06-10T12:21:31;30.40;51.60
38325;DHT22;24126;52.672;13.622;2023-06-10T12:24:03;30.50;51.50
38325;DHT22;24126;52.672;13.622;2023-06-10T12:26:34;30.50;50.80
38325;DHT22;24126;52.672;13.622;2023-06-10T12:29:11;30.50;50.20
38325;DHT22;24126;52.672;13.622;2023-06-10T12:31:54;30.60;50.10
38325;DHT22;24126;52.672;13.622;2023-06-10T12:34:32;30.60;50.20
38325;DHT22;24126;52.672;13.622;2023-06-10T12:37:00;30.60;49.70
38325;DHT22;24126;52.672;13.622;2023-06-10T12:39:27;30.60;49.10
38325;DHT22;24126;52.672;13.622;2023-06-10T12:41:55;30.60;49.40
38325;DHT22;24126;52.672;13.622;2023-06-10T12:44:29;30.70;50.10
38325;DHT22;24126;52.672;13.622;2023-06-10T12:46:56;30.70;49.20
38325;DHT22;24126;52.672;13.622;2023-06-10T12:49:23;30.90;49.40
38325;DHT22;24126;52.672;13.622;2023-06-10T12:51:50;31.00;47.90
38325;DHT22;24126;52.672;13.622;2023-06-10T12:54:17;31.00;48.30
38325;DHT22;24126;52.672;13.622;2023-06-10T12:56:44;30.90;48.10
38325;DHT22;24126;52.672;13.622;2023-06-10T12:59:12;31.00;48.30
38325;DHT22;24126;52.672;13.622;2023-06-10T13:01:43;31.20;48.10
38325;DHT22;24126;52.672;13.622;2023-06-10T13:04:10;31.30;47.20
38325;DHT22;24126;52.672;13.622;2023-06-10T13:06:40;31.30;47.00
38325;DHT22;24126;52.672;13.622;2023-06-10T13:09:07;31.40;47.60
38325;DHT22;24126;52.672;13.622;2023-06-10T13:11:35;31.30;46.80
38325;DHT22;24126;52.672;13.622;2023-06-10T13:14:03;31.30;46.40
38325;DHT22;24126;52.672;13.622;2023-06-10T13:16:32;31.40;46.10
38325;DHT22;24126;52.672;13.622;2023-06-10T13:18:59;31.40;46.30
38325;DHT22;24126;52.672;13.622;2023-06-10T13:21:26;31.50;46.30
38325;DHT22;24126;52.672;13.622;2023-06-10T13:23:53;31.50;45.60
38325;DHT22;24126;52.672;13.622;2023-06-10T13:26:21;31.40;45.30
38325;DHT22;24126;52.672;13.622;2023-06-10T13:28:48;31.30;45.00
38325;DHT22;24126;52.672;13.622;2023-06-10T13:31:15;31.20;44.10
38325;DHT22;24126;52.672;13.622;2023-06-10T13:33:42;31.30;44.30
38325;DHT22;24126;52.672;13.622;2023-06-10T13:36:09;31.30;43.80
38325;DHT22;24126;52.672;13.622;2023-06-10T13:38:38;31.30;43.00
38325;DHT22;24126;52.672;13.622;2023-06-10T13:41:05;31.30;42.70
38325;DHT22;24126;52.672;13.622;2023-06-10T13:43:32;31.40;43.00
38325;DHT22;24126;52.672;13.622;2023-06-10T13:46:01;31.50;41.60
38325;DHT22;24126;52.672;13.622;2023-06-10T13:48:28;31.50;41.40
38325;DHT22;24126;52.672;13.622;2023-06-10T13:50:55;31.50;41.20
38325;DHT22;24126;52.672;13.622;2023-06-10T13:53:22;31.60;41.30
38325;DHT22;24126;52.672;13.622;2023-06-10T13:55:52;31.70;40.40
38325;DHT22;24126;52.672;13.622;2023-06-10T13:58:38;31.70;40.20
38325;DHT22;24126;52.672;13.622;2023-06-10T14:01:11;31.70;40.60
38325;DHT22;24126;52.672;13.622;2023-06-10T14:03:41;31.80;40.20
38325;DHT22;24126;52.672;13.622;2023-06-10T14:06:08;31.80;39.00
38325;DHT22;24126;52.672;13.622;2023-06-10T14:08:39;31.80;39.40
38325;DHT22;24126;52.672;13.622;2023-06-10T14:11:06;31.90;39.50
38325;DHT22;24126;52.672;13.622;2023-06-10T14:13:37;31.90;39.30
38325;DHT22;24126;52.672;13.622;2023-06-10T14:16:04;31.90;38.70
38325;DHT22;24126;52.672;13.622;2023-06-10T14:18:31;31.90;38.90
38325;DHT22;24126;52.672;13.622;2023-06-10T14:20:58;31.80;38.50
38325;DHT22;24126;52.672;13.622;2023-06-10T14:23:28;31.70;38.80
38325;DHT22;24126;52.672;13.622;2023-06-10T14:25:55;31.60;38.90
38325;DHT22;24126;52.672;13.622;2023-06-10T14:28:22;31.50;39.10
38325;DHT22;24126;52.672;13.622;2023-06-10T14:30:51;31.50;39.80
38325;DHT22;24126;52.672;13.622;2023-06-10T14:33:19;31.50;39.70
38325;DHT22;24126;52.672;13.622;2023-06-10T14:35:46;31.50;39.40
38325;DHT22;24126;52.672;13.622;2023-06-10T14:38:16;31.40;39.70
38325;DHT22;24126;52.672;13.622;2023-06-10T14:40:45;31.40;39.80
38325;DHT22;24126;52.672;13.622;2023-06-10T14:47:02;31.20;39.00
38325;DHT22;24126;52.672;13.622;2023-06-10T14:49:29;31.10;39.50
38325;DHT22;24126;52.672;13.622;2023-06-10T14:51:56;31.00;40.20
38325;DHT22;24126;52.672;13.622;2023-06-10T14:54:24;30.90;39.90
38325;DHT22;24126;52.672;13.622;2023-06-10T14:57:09;30.80;40.30
38325;DHT22;24126;52.672;13.622;2023-06-10T14:59:42;30.70;40.10
38325;DHT22;24126;52.672;13.622;2023-06-10T15:02:09;30.70;39.90
38325;DHT22;24126;52.672;13.622;2023-06-10T15:04:36;30.60;40.00
38325;DHT22;24126;52.672;13.622;2023-06-10T15:07:14;30.50;40.20
38325;DHT22;24126;52.672;13.622;2023-06-10T15:09:42;30.50;40.10
38325;DHT22;24126;52.672;13.622;2023-06-10T15:12:09;30.40;40.20
38325;DHT22;24126;52.672;13.622;2023-06-10T15:20:31;30.50;40.90
38325;DHT22;24126;52.672;13.622;2023-06-10T15:26:48;30.50;40.70
38325;DHT22;24126;52.672;13.622;2023-06-10T15:29:17;30.50;39.20
38325;DHT22;24126;52.672;13.622;2023-06-10T15:31:44;30.40;39.00
38325;DHT22;24126;52.672;13.622;2023-06-10T15:34:13;30.50;39.30
38325;DHT22;24126;52.672;13.622;2023-06-10T15:39:27;30.50;38.90
38325;DHT22;24126;52.672;13.622;2023-06-10T15:41:58;30.60;38.00
38325;DHT22;24126;52.672;13.622;2023-06-10T15:44:28;30.60;38.40
38325;DHT22;24126;52.672;13.622;2023-06-10T15:47:02;30.70;38.50
38325;DHT22;24126;52.672;13.622;2023-06-10T15:49:44;30.70;37.30
38325;DHT22;24126;52.672;13.622;2023-06-10T15:52:12;30.70;37.10